createdAt,value
2023-03-14T00:00:18.681Z,13.15
2023-03-14T00:02:45.791Z,13.30
2023-03-14T00:05:12.763Z,13.37
2023-03-14T00:07:40.931Z,13.10
2023-03-14T00:10:11.018Z,13.23
2023-03-14T00:12:38.525Z,13.21
2023-03-14T00:15:08.055Z,13.17
2023-03-14T00:17:37.240Z,13.12
2023-03-14T00:20:09.346Z,13.23
2023-03-14T00:22:37.041Z,12.94
2023-03-14T00:25:05.677Z,13.00
2023-03-14T00:27:33.050Z,13.06
2023-03-14T00:30:00.100Z,12.96
2023-03-14T00:32:27.110Z,12.90
2023-03-14T00:34:55.611Z,12.95
2023-03-14T00:37:22.486Z,12.94
2023-03-14T00:39:49.508Z,13.17
2023-03-14T00:42:16.403Z,13.26
2023-03-14T00:44:43.422Z,13.39
2023-03-14T00:47:10.782Z,13.47
2023-03-14T00:49:37.744Z,13.45
2023-03-14T00:52:06.178Z,13.31
2023-03-14T00:54:33.519Z,13.39
2023-03-14T00:57:00.499Z,13.43
2023-03-14T00:59:27.615Z,13.52
2023-03-14T01:01:54.754Z,13.43
2023-03-14T01:04:21.717Z,13.48
2023-03-14T01:06:48.753Z,13.55
2023-03-14T01:09:18.929Z,13.55
2023-03-14T01:11:47.539Z,13.53
2023-03-14T01:14:15.014Z,13.53
2023-03-14T01:16:42.203Z,13.65
2023-03-14T01:19:10.216Z,13.50
2023-03-14T01:21:37.523Z,13.38
2023-03-14T01:24:06.864Z,13.44
2023-03-14T01:26:36.176Z,13.54
2023-03-14T01:29:03.450Z,13.59
2023-03-14T01:31:30.481Z,13.51
2023-03-14T01:33:57.463Z,13.78
2023-03-14T01:36:24.579Z,13.51
2023-03-14T01:38:51.625Z,13.54
2023-03-14T01:41:21.392Z,13.71
2023-03-14T01:43:50.905Z,13.63
2023-03-14T01:46:27.579Z,13.55
2023-03-14T01:49:03.953Z,13.54
2023-03-14T01:51:35.800Z,13.48
2023-03-14T01:54:10.115Z,13.43
2023-03-14T01:56:39.080Z,13.10
2023-03-14T01:59:10.175Z,13.36
2023-03-14T02:01:38.960Z,13.31
2023-03-14T02:04:08.890Z,13.44
2023-03-14T02:06:43.597Z,13.39
2023-03-14T02:09:10.665Z,13.55
2023-03-14T02:11:37.952Z,13.51
2023-03-14T02:14:05.216Z,13.67
2023-03-14T02:16:33.722Z,13.52
2023-03-14T02:19:00.756Z,13.38
2023-03-14T02:21:43.589Z,13.48
2023-03-14T02:24:18.479Z,13.43
2023-03-14T02:27:01.761Z,13.66
2023-03-14T02:29:31.859Z,13.47
2023-03-14T02:31:58.872Z,13.57
2023-03-14T02:34:27.244Z,13.62
2023-03-14T02:36:54.801Z,13.58
2023-03-14T02:39:28.974Z,13.64
2023-03-14T02:41:56.005Z,13.69
2023-03-14T02:44:22.934Z,13.75
2023-03-14T02:46:52.310Z,13.83
2023-03-14T02:49:19.668Z,13.57
2023-03-14T02:51:47.452Z,13.79
2023-03-14T02:54:16.518Z,13.62
2023-03-14T02:56:43.547Z,13.59
2023-03-14T02:59:10.606Z,13.44
2023-03-14T03:01:37.718Z,13.60
2023-03-14T03:04:06.763Z,13.66
2023-03-14T03:06:33.721Z,13.73
2023-03-14T03:09:00.953Z,13.60
2023-03-14T03:11:28.122Z,13.82
2023-03-14T03:13:55.072Z,13.68
2023-03-14T03:16:22.052Z,13.56
2023-03-14T03:18:49.026Z,13.57
2023-03-14T03:21:17.512Z,13.63
2023-03-14T03:23:44.584Z,13.59
2023-03-14T03:26:12.172Z,13.37
2023-03-14T03:28:39.136Z,13.63
2023-03-14T03:31:10.296Z,13.46
2023-03-14T03:33:37.619Z,13.52
2023-03-14T03:36:05.509Z,13.51
2023-03-14T03:38:33.951Z,13.48
2023-03-14T03:41:04.669Z,13.77
2023-03-14T03:43:31.894Z,13.67
2023-03-14T03:45:58.925Z,13.60
2023-03-14T03:48:25.828Z,13.62
2023-03-14T03:50:52.939Z,13.66
2023-03-14T03:53:32.374Z,13.68
2023-03-14T03:56:02.175Z,13.68
2023-03-14T03:58:29.234Z,13.70
2023-03-14T04:00:56.252Z,13.88
2023-03-14T04:03:23.222Z,13.64
2023-03-14T04:05:59.731Z,13.71
2023-03-14T04:08:26.779Z,13.62
2023-03-14T04:10:56.589Z,13.54
2023-03-14T04:13:25.230Z,13.63
2023-03-14T04:15:52.744Z,13.67
2023-03-14T04:18:20.350Z,13.58
2023-03-14T04:20:51.418Z,13.54
2023-03-14T04:23:18.434Z,13.67
2023-03-14T04:25:45.353Z,13.61
2023-03-14T04:28:12.309Z,13.65
2023-03-14T04:30:40.722Z,13.77
2023-03-14T04:33:08.399Z,13.63
2023-03-14T04:35:35.684Z,13.80
2023-03-14T04:38:02.681Z,13.70
2023-03-14T04:40:29.700Z,13.68
2023-03-14T04:42:56.703Z,13.76
2023-03-14T04:45:23.742Z,13.67
2023-03-14T04:47:52.114Z,13.35
2023-03-14T04:50:19.318Z,13.36
2023-03-14T04:52:46.234Z,13.33
2023-03-14T04:55:13.259Z,13.28
2023-03-14T04:57:40.390Z,13.31
2023-03-14T05:00:08.929Z,13.38
2023-03-14T05:02:36.306Z,13.44
2023-03-14T05:05:05.559Z,13.35
2023-03-14T05:07:32.584Z,13.23
2023-03-14T05:09:59.524Z,13.31
2023-03-14T05:12:26.529Z,13.11
2023-03-14T05:14:53.441Z,12.65
2023-03-14T05:17:21.098Z,11.79
2023-03-14T05:19:48.260Z,11.16
2023-03-14T05:22:16.610Z,10.95
2023-03-14T05:24:43.633Z,10.59
2023-03-14T05:27:10.852Z,11.09
2023-03-14T05:29:37.758Z,11.00
2023-03-14T05:32:04.854Z,10.63
2023-03-14T05:34:31.996Z,10.54
2023-03-14T05:36:58.991Z,10.85
2023-03-14T05:39:27.629Z,10.59
2023-03-14T05:41:56.942Z,10.10
2023-03-14T05:44:24.306Z,10.02
2023-03-14T05:46:51.250Z,10.13
2023-03-14T05:49:18.945Z,10.20
2023-03-14T05:51:45.909Z,10.02
2023-03-14T05:54:12.875Z,10.56
2023-03-14T05:56:41.327Z,10.18
2023-03-14T05:59:10.019Z,10.19
2023-03-14T06:01:36.976Z,10.39
2023-03-14T06:04:03.939Z,10.07
2023-03-14T06:06:30.935Z,9.93
2023-03-14T06:08:57.869Z,9.94
2023-03-14T06:11:24.873Z,9.96
2023-03-14T06:13:53.531Z,9.81
2023-03-14T06:16:20.534Z,10.08
2023-03-14T06:18:50.558Z,9.90
2023-03-14T06:21:19.282Z,10.11
2023-03-14T06:23:46.388Z,10.13
2023-03-14T06:26:13.462Z,9.74
2023-03-14T06:28:40.706Z,10.00
2023-03-14T06:31:09.264Z,9.88
2023-03-14T06:33:36.233Z,9.94
2023-03-14T06:36:03.458Z,9.75
2023-03-14T06:38:30.682Z,9.99
2023-03-14T06:40:57.707Z,10.10
2023-03-14T06:43:24.732Z,9.91
2023-03-14T06:45:51.780Z,10.11
2023-03-14T06:48:20.374Z,10.36
2023-03-14T06:50:49.019Z,10.36
2023-03-14T06:53:16.045Z,10.26
2023-03-14T06:55:44.176Z,9.71
2023-03-14T06:58:11.395Z,9.98
2023-03-14T07:00:38.558Z,9.99
2023-03-14T07:03:05.443Z,9.79
2023-03-14T07:05:33.879Z,9.99
2023-03-14T07:08:01.649Z,10.12
2023-03-14T07:10:28.618Z,10.06
2023-03-14T07:12:55.839Z,9.96
2023-03-14T07:15:22.858Z,9.61
2023-03-14T07:17:49.810Z,9.74
2023-03-14T07:20:17.092Z,9.66
2023-03-14T07:22:48.250Z,9.48
2023-03-14T07:25:15.245Z,9.21
2023-03-14T07:27:44.817Z,9.03
2023-03-14T07:30:12.994Z,9.37
2023-03-14T07:32:40.120Z,9.10
2023-03-14T07:35:08.655Z,9.19
2023-03-14T07:37:35.568Z,9.08
2023-03-14T07:40:07.950Z,9.18
2023-03-14T07:42:34.942Z,9.18
2023-03-14T07:45:02.002Z,8.91
2023-03-14T07:47:28.954Z,8.80
2023-03-14T07:49:55.976Z,9.18
2023-03-14T07:52:23.047Z,8.94
2023-03-14T07:54:50.043Z,8.87
2023-03-14T07:57:18.430Z,8.94
2023-03-14T07:59:45.526Z,9.17
2023-03-14T08:02:13.026Z,9.22
2023-03-14T08:04:40.950Z,9.43
2023-03-14T08:07:07.867Z,9.32
2023-03-14T08:09:35.030Z,9.36
2023-03-14T08:12:02.148Z,9.33
2023-03-14T08:14:32.038Z,9.23
2023-03-14T08:16:59.104Z,9.11
2023-03-14T08:19:26.202Z,9.13
2023-03-14T08:21:53.221Z,8.97
2023-03-14T08:24:20.269Z,8.90
2023-03-14T08:26:47.228Z,8.87
2023-03-14T08:29:14.181Z,8.75
2023-03-14T08:31:42.802Z,9.05
2023-03-14T08:34:09.904Z,9.01
2023-03-14T08:36:36.969Z,9.04
2023-03-14T08:39:05.141Z,9.25
2023-03-14T08:41:32.211Z,9.29
2023-03-14T08:43:59.110Z,9.15
2023-03-14T08:46:26.144Z,9.18
2023-03-14T08:48:54.506Z,9.41
2023-03-14T08:51:21.497Z,9.58
2023-03-14T08:53:48.553Z,9.60
2023-03-14T08:56:15.656Z,9.26
2023-03-14T08:58:43.240Z,9.48
2023-03-14T09:01:11.875Z,9.51
2023-03-14T09:03:40.353Z,8.99
2023-03-14T09:06:10.943Z,9.38
2023-03-14T09:08:39.548Z,9.13
2023-03-14T09:11:08.617Z,9.37
2023-03-14T09:13:35.626Z,8.98
2023-03-14T09:16:02.636Z,8.84
2023-03-14T09:18:30.176Z,8.84
2023-03-14T09:20:57.432Z,8.93
2023-03-14T09:23:25.889Z,9.00
2023-03-14T09:25:56.214Z,9.16
2023-03-14T09:28:23.160Z,9.18
2023-03-14T09:30:50.760Z,9.16
2023-03-14T09:33:17.785Z,9.12
2023-03-14T09:35:45.022Z,8.87
2023-03-14T09:38:12.026Z,8.52
2023-03-14T09:40:40.544Z,8.57
2023-03-14T09:43:10.832Z,8.45
2023-03-14T09:45:41.626Z,8.68
2023-03-14T09:48:15.707Z,8.63
2023-03-14T09:50:45.607Z,8.40
2023-03-14T09:53:15.889Z,8.83
2023-03-14T09:55:46.056Z,8.80
2023-03-14T09:58:18.048Z,9.00
2023-03-14T10:00:45.530Z,8.89
2023-03-14T10:03:26.929Z,8.51
2023-03-14T10:05:54.498Z,8.76
2023-03-14T10:08:21.552Z,8.74
2023-03-14T10:10:50.138Z,8.70
2023-03-14T10:13:19.834Z,8.94
2023-03-14T10:15:52.692Z,8.98
2023-03-14T10:18:19.684Z,9.03
2023-03-14T10:20:48.384Z,9.13
2023-03-14T10:23:29.032Z,9.06
2023-03-14T10:26:06.217Z,9.11
2023-03-14T10:28:35.384Z,9.08
2023-03-14T10:31:02.516Z,9.00
2023-03-14T10:33:31.624Z,8.48
2023-03-14T10:36:00.967Z,8.74
2023-03-14T10:38:29.764Z,8.89
2023-03-14T10:40:58.692Z,9.14
2023-03-14T10:43:31.806Z,9.65
2023-03-14T10:46:02.353Z,9.60
2023-03-14T10:48:34.371Z,10.14
2023-03-14T10:51:06.737Z,10.41
2023-03-14T10:53:45.361Z,10.35
2023-03-14T10:56:18.338Z,10.64
2023-03-14T10:58:48.537Z,10.84
2023-03-14T11:01:33.553Z,10.81
2023-03-14T11:04:06.588Z,10.93
2023-03-14T11:06:40.523Z,11.05
2023-03-14T11:09:12.864Z,10.96
2023-03-14T11:11:43.802Z,10.93
2023-03-14T11:14:21.872Z,10.86
2023-03-14T11:16:55.273Z,10.76
2023-03-14T11:19:54.508Z,10.79
2023-03-14T11:22:35.996Z,10.74
2023-03-14T11:25:22.794Z,10.09
2023-03-14T11:27:57.924Z,10.11
2023-03-14T11:30:32.437Z,10.23
2023-03-14T11:33:06.571Z,10.02
2023-03-14T11:35:38.823Z,9.84
2023-03-14T11:38:29.010Z,10.15
2023-03-14T11:40:59.089Z,9.50
2023-03-14T11:43:30.537Z,9.39
2023-03-14T11:46:05.291Z,9.64
2023-03-14T11:48:39.346Z,9.06
2023-03-14T11:51:12.793Z,9.72
2023-03-14T11:53:51.893Z,9.83
2023-03-14T11:56:25.831Z,9.97
2023-03-14T11:58:55.880Z,9.80
2023-03-14T12:01:29.272Z,9.04
2023-03-14T12:04:05.783Z,9.86
2023-03-14T12:06:39.245Z,9.24
2023-03-14T12:09:07.803Z,9.62
2023-03-14T12:11:40.280Z,9.70
2023-03-14T12:14:19.813Z,9.27
2023-03-14T12:16:50.359Z,8.86
2023-03-14T12:19:33.789Z,9.25
2023-03-14T12:22:08.743Z,9.68
2023-03-14T12:24:38.457Z,9.30
2023-03-14T12:27:10.202Z,9.18
2023-03-14T12:29:59.446Z,9.68
2023-03-14T12:32:28.749Z,9.31
2023-03-14T12:34:55.842Z,9.68
2023-03-14T12:37:35.392Z,9.39
2023-03-14T12:40:18.786Z,8.52
2023-03-14T12:42:59.513Z,8.38
2023-03-14T12:45:29.325Z,8.64
2023-03-14T12:48:06.258Z,9.02
2023-03-14T12:50:38.042Z,8.77
2023-03-14T12:53:46.798Z,8.69
2023-03-14T12:56:27.767Z,9.23
2023-03-14T12:59:15.930Z,9.13
2023-03-14T13:01:54.119Z,8.75
2023-03-14T13:04:38.915Z,8.81
2023-03-14T13:07:13.637Z,9.10
2023-03-14T13:10:01.910Z,9.44
2023-03-14T13:12:36.283Z,9.91
2023-03-14T13:15:14.337Z,9.65
2023-03-14T13:17:42.650Z,9.93
2023-03-14T13:20:17.626Z,9.48
2023-03-14T13:22:49.218Z,9.82
2023-03-14T13:25:17.997Z,8.93
2023-03-14T13:27:45.326Z,8.80
2023-03-14T13:30:24.453Z,8.64
2023-03-14T13:32:53.156Z,8.80
2023-03-14T13:35:24.562Z,8.71
2023-03-14T13:38:17.614Z,8.02
2023-03-14T13:40:46.534Z,8.19
2023-03-14T13:43:18.005Z,8.01
2023-03-14T13:45:49.397Z,8.15
2023-03-14T13:48:17.531Z,8.31
2023-03-14T13:50:54.811Z,8.35
2023-03-14T13:53:22.325Z,8.13
2023-03-14T13:55:50.340Z,8.33
2023-03-14T13:58:28.498Z,8.37
2023-03-14T14:00:59.734Z,8.20
2023-03-14T14:03:27.233Z,8.72
2023-03-14T14:05:58.988Z,8.83
2023-03-14T14:08:27.379Z,8.72
2023-03-14T14:11:00.116Z,8.68
2023-03-14T14:13:30.640Z,8.69
2023-03-14T14:16:01.121Z,9.25
2023-03-14T14:18:29.735Z,9.34
2023-03-14T14:20:58.813Z,9.08
2023-03-14T14:23:29.834Z,8.86
2023-03-14T14:25:58.816Z,9.32
2023-03-14T14:28:29.390Z,9.56
2023-03-14T14:31:19.434Z,9.71
2023-03-14T14:33:54.122Z,9.51
2023-03-14T14:36:25.134Z,9.71
2023-03-14T14:38:54.319Z,9.32
2023-03-14T14:41:21.657Z,9.22
2023-03-14T14:43:48.896Z,9.07
2023-03-14T14:46:19.859Z,9.41
2023-03-14T14:48:50.616Z,9.26
2023-03-14T14:51:27.234Z,9.24
2023-03-14T14:54:10.807Z,9.52
2023-03-14T14:56:39.143Z,9.16
2023-03-14T14:59:08.220Z,9.57
2023-03-14T15:01:37.032Z,9.71
2023-03-14T15:04:10.514Z,9.90
2023-03-14T15:06:39.412Z,9.72
2023-03-14T15:09:07.632Z,9.68
2023-03-14T15:11:34.619Z,9.94
2023-03-14T15:14:01.981Z,10.19
2023-03-14T15:16:31.191Z,10.10
2023-03-14T15:19:01.898Z,10.06
2023-03-14T15:21:30.188Z,10.10
2023-03-14T15:23:58.558Z,10.22
2023-03-14T15:26:27.404Z,10.54
2023-03-14T15:28:55.095Z,10.80
2023-03-14T15:31:22.906Z,10.94
2023-03-14T15:33:50.083Z,10.84
2023-03-14T15:36:28.516Z,10.84
2023-03-14T15:38:56.586Z,10.98
2023-03-14T15:41:25.382Z,11.05
2023-03-14T15:43:53.154Z,10.92
2023-03-14T15:46:20.201Z,10.44
2023-03-14T15:48:47.774Z,10.41
2023-03-14T15:51:15.393Z,10.56
2023-03-14T15:53:44.746Z,10.26
2023-03-14T15:56:14.081Z,10.18
2023-03-14T15:58:42.995Z,10.00
2023-03-14T16:01:10.464Z,10.32
2023-03-14T16:03:37.821Z,10.20
2023-03-14T16:06:05.772Z,9.84
2023-03-14T16:08:32.887Z,10.19
2023-03-14T16:11:00.466Z,10.12
2023-03-14T16:13:28.531Z,10.34
2023-03-14T16:15:58.838Z,10.58
2023-03-14T16:18:28.253Z,10.43
2023-03-14T16:20:56.781Z,10.10
2023-03-14T16:23:24.479Z,10.21
2023-03-14T16:25:51.922Z,10.11
2023-03-14T16:28:19.192Z,10.20
2023-03-14T16:30:47.716Z,10.10
2023-03-14T16:33:16.923Z,10.19
2023-03-14T16:35:54.794Z,10.14
2023-03-14T16:38:22.431Z,10.26
2023-03-14T16:40:57.347Z,10.13
2023-03-14T16:43:24.443Z,10.14
2023-03-14T16:45:51.757Z,10.33
2023-03-14T16:48:20.697Z,10.14
2023-03-14T16:50:50.068Z,9.93
2023-03-14T16:53:17.133Z,10.35
2023-03-14T16:55:44.612Z,10.05
2023-03-14T16:58:12.137Z,10.23
2023-03-14T17:04:09.860Z,9.84
2023-03-14T17:06:38.504Z,9.65
2023-03-14T17:09:06.345Z,9.61
2023-03-14T17:12:09.329Z,9.32
2023-03-14T17:14:36.377Z,9.29
2023-03-14T17:17:03.435Z,9.08
2023-03-14T17:19:34.118Z,9.35
2023-03-14T17:22:21.265Z,9.37
2023-03-14T17:24:48.127Z,9.12
2023-03-14T17:27:20.046Z,9.09
2023-03-14T17:29:47.487Z,9.29
2023-03-14T17:32:14.925Z,9.12
2023-03-14T17:34:43.809Z,8.89
2023-03-14T17:37:11.234Z,9.00
2023-03-14T17:39:39.485Z,9.02
2023-03-14T17:42:07.293Z,8.97
2023-03-14T17:44:35.273Z,9.01
2023-03-14T17:47:02.240Z,9.05
2023-03-14T17:49:29.209Z,9.00
2023-03-14T17:51:57.662Z,8.83
2023-03-14T17:54:24.843Z,8.93
2023-03-14T17:56:51.907Z,8.76
2023-03-14T17:59:18.852Z,8.54
2023-03-14T18:01:46.113Z,8.50
2023-03-14T18:04:14.328Z,8.45
2023-03-14T18:06:44.838Z,8.37
2023-03-14T18:09:13.196Z,8.24
2023-03-14T18:11:40.239Z,8.18
2023-03-14T18:14:11.686Z,8.07
2023-03-14T18:16:38.719Z,7.97
2023-03-14T18:19:05.761Z,7.90
2023-03-14T18:21:32.885Z,7.77
2023-03-14T18:23:59.875Z,7.70
2023-03-14T18:26:28.356Z,7.61
2023-03-14T18:28:55.351Z,7.55
2023-03-14T18:31:25.324Z,7.49
2023-03-14T18:33:55.593Z,7.44
2023-03-14T18:36:22.867Z,7.44
2023-03-14T18:38:51.725Z,7.44
2023-03-14T18:41:23.442Z,7.42
2023-03-14T18:43:53.663Z,7.47
2023-03-14T18:46:22.083Z,7.49
2023-03-14T18:48:56.550Z,7.60
2023-03-14T18:51:26.147Z,7.63
2023-03-14T18:54:02.904Z,7.69
2023-03-14T18:56:35.310Z,7.80
2023-03-14T18:59:03.987Z,7.87
2023-03-14T19:01:31.668Z,7.96
2023-03-14T19:03:59.322Z,8.10
2023-03-14T19:06:28.389Z,8.19
2023-03-14T19:08:55.451Z,8.06
2023-03-14T19:11:22.433Z,8.16
2023-03-14T19:13:49.850Z,7.31
2023-03-14T19:16:18.389Z,7.18
2023-03-14T19:18:45.448Z,7.38
2023-03-14T19:21:14.250Z,7.44
2023-03-14T19:23:42.847Z,7.61
2023-03-14T19:26:10.062Z,7.52
2023-03-14T19:28:37.303Z,7.40
2023-03-14T19:31:05.672Z,7.36
2023-03-14T19:33:34.222Z,7.29
2023-03-14T19:36:02.573Z,7.19
2023-03-14T19:38:29.764Z,7.05
2023-03-14T19:40:58.320Z,6.95
2023-03-14T19:43:25.610Z,7.00
2023-03-14T19:45:52.763Z,6.96
2023-03-14T19:48:19.923Z,6.91
2023-03-14T19:50:48.279Z,6.87
2023-03-14T19:53:15.335Z,6.83
2023-03-14T19:55:46.714Z,6.75
2023-03-14T19:58:13.767Z,6.63
2023-03-14T20:00:41.680Z,6.58
2023-03-14T20:03:08.778Z,6.50
2023-03-14T20:05:39.273Z,6.45
2023-03-14T20:08:08.232Z,6.35
2023-03-14T20:10:36.570Z,6.29
2023-03-14T20:13:12.096Z,6.25
2023-03-14T20:15:46.305Z,6.16
2023-03-14T20:18:13.296Z,6.17
2023-03-14T20:20:41.172Z,6.08
2023-03-14T20:23:09.705Z,6.02
2023-03-14T20:25:38.009Z,6.11
2023-03-14T20:28:05.486Z,6.05
2023-03-14T20:30:32.698Z,6.17
2023-03-14T20:33:00.202Z,6.20
2023-03-14T20:35:27.233Z,6.32
2023-03-14T20:37:56.197Z,6.38
2023-03-14T20:40:28.897Z,6.49
2023-03-14T20:42:56.137Z,6.50
2023-03-14T20:45:23.193Z,6.70
2023-03-14T20:47:50.246Z,6.78
2023-03-14T20:50:17.685Z,6.83
2023-03-14T20:52:45.508Z,6.92
2023-03-14T20:55:12.890Z,6.98
2023-03-14T20:57:41.188Z,7.07
2023-03-14T21:00:09.407Z,7.09
2023-03-14T21:02:36.513Z,7.12
2023-03-14T21:05:04.196Z,7.14
2023-03-14T21:07:33.011Z,7.20
2023-03-14T21:10:00.162Z,7.30
2023-03-14T21:12:27.201Z,7.28
2023-03-14T21:14:55.711Z,7.36
2023-03-14T21:17:22.750Z,7.47
2023-03-14T21:19:49.765Z,7.48
2023-03-14T21:22:18.770Z,7.47
2023-03-14T21:24:46.261Z,7.45
2023-03-14T21:27:13.243Z,7.38
2023-03-14T21:29:40.418Z,7.43
2023-03-14T21:32:08.816Z,7.48
2023-03-14T21:34:35.874Z,7.50
2023-03-14T21:37:02.935Z,7.58
2023-03-14T21:39:30.800Z,7.50
2023-03-14T21:41:57.950Z,7.56
2023-03-14T21:44:24.959Z,7.44
2023-03-14T21:46:52.081Z,7.61
2023-03-14T21:49:20.452Z,7.51
2023-03-14T21:51:47.580Z,7.61
2023-03-14T21:54:15.544Z,7.63
2023-03-14T21:56:43.928Z,7.57
2023-03-14T21:59:12.430Z,7.77
2023-03-14T22:01:39.643Z,7.31
2023-03-14T22:04:06.756Z,7.20
2023-03-14T22:06:35.135Z,7.28
2023-03-14T22:09:02.857Z,7.49
2023-03-14T22:11:29.840Z,7.58
2023-03-14T22:13:56.913Z,7.70
2023-03-14T22:16:23.866Z,7.66
2023-03-14T22:18:50.915Z,7.56
2023-03-14T22:21:18.173Z,7.48
2023-03-14T22:23:46.538Z,7.15
2023-03-14T22:26:13.617Z,7.60
2023-03-14T22:28:40.570Z,7.47
2023-03-14T22:31:09.695Z,7.17
2023-03-14T22:33:36.641Z,7.00
2023-03-14T22:36:04.429Z,7.50
2023-03-14T22:38:31.387Z,7.64
2023-03-14T22:41:02.626Z,7.73
2023-03-14T22:43:30.105Z,7.74
2023-03-14T22:46:00.604Z,7.79
2023-03-14T22:48:27.784Z,7.60
2023-03-14T22:50:54.891Z,7.83
2023-03-14T22:53:22.074Z,7.69
2023-03-14T22:55:57.487Z,7.81
2023-03-14T22:58:26.518Z,7.71
2023-03-14T23:00:53.820Z,7.74
2023-03-14T23:03:21.252Z,7.60
2023-03-14T23:05:48.260Z,7.74
2023-03-14T23:08:16.076Z,7.72
2023-03-14T23:10:43.372Z,7.54
2023-03-14T23:13:14.649Z,7.62
2023-03-14T23:15:44.029Z,7.71
2023-03-14T23:18:12.399Z,7.50
2023-03-14T23:20:39.388Z,7.45
2023-03-14T23:23:08.459Z,7.43
2023-03-14T23:25:41.584Z,7.32
2023-03-14T23:28:19.714Z,7.59
2023-03-14T23:30:48.151Z,7.48
2023-03-14T23:33:15.517Z,7.69
2023-03-14T23:35:42.563Z,7.53
2023-03-14T23:38:09.703Z,7.38
2023-03-14T23:40:36.669Z,7.49
2023-03-14T23:43:03.699Z,7.46
2023-03-14T23:45:30.960Z,7.58
2023-03-14T23:47:59.381Z,7.59
2023-03-14T23:50:26.346Z,7.51
2023-03-14T23:52:53.395Z,7.64
2023-03-14T23:55:20.396Z,7.63
2023-03-14T23:57:47.839Z,8.00
